createdAt,value
2022-12-13T02:15:18.302Z,98979.22
2022-12-13T02:16:27.561Z,98975.28
2022-12-13T02:17:53.836Z,98973.89
2022-12-13T02:19:19.539Z,98971.56
2022-12-13T02:20:45.903Z,98977.75
2022-12-13T02:22:07.069Z,98968.82
2022-12-13T02:23:31.230Z,98975.72
2022-12-13T02:28:21.569Z,98972.98
2022-12-13T02:29:41.622Z,98970.25
2022-12-13T02:30:46.421Z,98964.05
2022-12-13T02:32:25.205Z,98963.98
2022-12-13T02:33:43.392Z,98968.02
2022-12-13T02:34:49.092Z,98971.59
2022-12-13T02:37:21.517Z,98976.64
2022-12-13T02:40:07.811Z,98970.37
2022-12-13T02:42:56.460Z,98977.35
2022-12-13T02:44:05.108Z,98986.78
2022-12-13T02:45:20.817Z,98975.73
2022-12-13T02:46:22.447Z,98979.06
2022-12-13T02:47:25.488Z,98986.62
2022-12-13T02:48:36.267Z,98988.17
2022-12-13T02:49:40.168Z,98989.64
2022-12-13T02:50:42.368Z,98987.59
2022-12-13T02:51:44.570Z,98990.89
2022-12-13T02:52:46.826Z,98989.77
2022-12-13T02:53:49.697Z,98986.88
2022-12-13T02:54:55.083Z,98990.27
2022-12-13T02:55:58.106Z,98984.68
2022-12-13T02:57:02.146Z,98987.23
2022-12-13T02:58:05.038Z,98992.36
2022-12-13T03:00:45.065Z,98983.84
2022-12-13T03:02:09.522Z,98997.08
2022-12-13T03:05:02.968Z,98990.27
2022-12-13T03:06:11.819Z,98992.95
2022-12-13T03:07:35.648Z,99000.75
2022-12-13T03:08:58.765Z,98996.36
2022-12-13T03:10:08.570Z,98998.91
2022-12-13T03:11:13.937Z,98995.16
2022-12-13T03:13:53.502Z,99000.36
2022-12-13T03:15:02.100Z,99005.72
2022-12-13T03:16:09.099Z,99004.88
2022-12-13T03:17:11.613Z,99007.42
2022-12-13T03:19:36.308Z,98999.27
2022-12-13T03:20:39.087Z,99003.63
2022-12-13T03:21:48.344Z,99002.67
2022-12-13T03:22:54.065Z,98996.36
2022-12-13T03:23:56.520Z,98996.23
2022-12-13T03:24:58.620Z,98995.27
2022-12-13T03:26:09.737Z,98993.43
2022-12-13T03:27:12.087Z,98989.80
2022-12-13T03:28:14.226Z,98991.50
2022-12-13T03:29:23.609Z,98994.89
2022-12-13T03:30:20.898Z,98992.22
2022-12-13T03:31:23.499Z,98991.25
2022-12-13T03:32:25.640Z,98985.77
2022-12-13T03:33:28.536Z,98991.96
2022-12-13T03:34:43.767Z,98981.14
2022-12-13T03:35:44.923Z,98978.47
2022-12-13T03:36:38.839Z,98981.05
2022-12-13T03:37:41.968Z,98984.55
2022-12-13T03:38:46.442Z,98981.88
2022-12-13T03:39:49.028Z,98983.62
2022-12-13T03:40:58.731Z,98982.63
2022-12-13T03:42:01.864Z,98991.65
2022-12-13T03:43:04.824Z,98980.83
2022-12-13T03:44:07.088Z,98977.19
2022-12-13T03:45:09.916Z,98975.34
2022-12-13T03:46:13.325Z,98979.73
2022-12-13T03:47:15.775Z,98975.22
2022-12-13T03:48:22.524Z,98982.27
2022-12-13T03:49:23.437Z,98979.60
2022-12-13T03:50:27.486Z,98977.77
2022-12-13T03:51:29.694Z,98981.18
2022-12-13T03:52:32.244Z,98975.83
2022-12-13T03:53:35.652Z,98976.67
2022-12-13T03:54:37.813Z,98978.38
2022-12-13T03:55:39.916Z,98978.38
2022-12-13T03:56:43.127Z,98977.38
2022-12-13T03:57:45.316Z,98973.87
2022-12-13T03:58:49.514Z,98969.36
2022-12-13T03:59:52.599Z,98971.06
2022-12-13T04:01:00.158Z,98969.27
2022-12-13T04:02:03.973Z,98963.78
2022-12-13T04:03:07.006Z,98968.27
2022-12-13T04:04:09.205Z,98965.59
2022-12-13T04:05:11.750Z,98962.91
2022-12-13T04:06:21.708Z,98970.94
2022-12-13T04:07:22.525Z,98972.64
2022-12-13T04:08:23.500Z,98975.32
2022-12-13T04:09:26.658Z,98969.97
2022-12-13T04:10:28.995Z,98973.61
2022-12-13T04:11:32.099Z,98972.64
2022-12-13T04:12:34.596Z,98970.81
2022-12-13T04:13:36.905Z,98976.16
2022-12-13T04:14:39.500Z,98982.38
2022-12-13T04:15:41.478Z,98979.70
2022-12-13T04:16:43.546Z,98978.73
2022-12-13T04:17:45.641Z,98983.22
2022-12-13T04:18:50.448Z,98984.09
2022-12-13T04:19:52.566Z,98981.41
2022-12-13T04:20:54.668Z,98970.72
2022-12-13T04:21:57.335Z,98980.55
2022-12-13T04:22:59.793Z,98986.77
2022-12-13T04:24:03.144Z,98983.22
2022-12-13T04:25:06.590Z,98982.38
2022-12-13T04:26:08.980Z,98983.22
2022-12-13T04:27:11.059Z,98975.20
2022-12-13T04:28:13.155Z,98980.55
2022-12-13T04:29:18.191Z,98980.55
2022-12-13T04:30:21.076Z,98976.91
2022-12-13T04:31:23.399Z,98985.89
2022-12-13T04:32:27.461Z,98981.41
2022-12-13T04:33:29.810Z,98977.87
2022-12-13T04:34:37.172Z,98977.03
2022-12-13T04:35:36.834Z,98974.36
2022-12-13T04:36:39.239Z,98977.03
2022-12-13T04:37:43.357Z,98977.03
2022-12-13T04:40:00.486Z,98977.13
2022-12-13T04:41:07.184Z,98984.19
2022-12-13T04:42:09.428Z,98974.48
2022-12-13T04:43:12.210Z,98975.32
2022-12-13T04:44:28.354Z,98977.16
2022-12-13T04:45:19.979Z,98970.81
2022-12-13T04:46:22.782Z,98974.36
2022-12-13T04:47:24.923Z,98980.55
2022-12-13T04:48:30.427Z,98978.84
2022-12-13T04:49:32.732Z,98986.02
2022-12-13T04:50:35.318Z,98993.92
2022-12-13T04:51:38.282Z,98985.05
2022-12-13T04:52:40.380Z,98972.52
2022-12-13T04:53:55.671Z,98980.55
2022-12-13T04:54:59.861Z,98895.52
2022-12-13T04:56:03.636Z,98980.41
2022-12-13T04:57:06.508Z,98974.23
2022-12-13T04:58:09.166Z,98974.23
2022-12-13T04:59:11.154Z,98973.26
2022-12-13T05:00:14.352Z,98975.94
2022-12-13T05:01:17.714Z,98974.23
2022-12-13T05:02:23.768Z,98976.91
2022-12-13T05:03:24.549Z,98978.61
2022-12-13T05:04:32.317Z,98978.61
2022-12-13T05:05:30.599Z,98987.47
2022-12-13T05:06:32.971Z,98984.80
2022-12-13T05:07:42.431Z,98990.98
2022-12-13T05:08:41.139Z,98993.66
2022-12-13T05:09:43.252Z,98991.86
2022-12-13T05:10:45.421Z,98994.53
2022-12-13T05:11:48.602Z,98999.88
2022-12-13T05:12:50.647Z,98998.05
2022-12-13T05:13:52.767Z,98995.37
2022-12-13T05:14:55.867Z,98997.20
2022-12-13T05:16:00.590Z,98995.37
2022-12-13T05:17:02.852Z,98999.88
2022-12-13T05:18:10.593Z,98998.92
2022-12-13T05:19:11.185Z,98988.22
2022-12-13T05:20:13.345Z,98992.56
2022-12-13T05:21:15.976Z,98990.02
2022-12-13T05:22:20.631Z,99004.27
2022-12-13T05:23:25.223Z,99004.27
2022-12-13T05:24:27.353Z,99002.42
2022-12-13T05:25:29.541Z,99011.30
2022-12-13T05:26:31.630Z,99010.45
2022-12-13T05:27:34.051Z,99011.30
2022-12-13T05:28:36.159Z,99013.13
2022-12-13T05:29:38.172Z,99006.94
2022-12-13T05:30:41.396Z,99016.64
2022-12-13T05:31:43.579Z,99013.13
2022-12-13T05:32:47.282Z,99012.16
2022-12-13T05:33:49.658Z,99005.11
2022-12-13T05:34:51.757Z,99009.48
2022-12-13T05:35:59.932Z,99006.81
2022-12-13T05:37:00.323Z,99001.46
2022-12-13T05:38:03.378Z,98999.62
2022-12-13T05:39:06.038Z,99006.81
2022-12-13T05:40:11.488Z,99009.48
2022-12-13T05:41:15.611Z,99009.48
2022-12-13T05:42:18.459Z,99004.14
2022-12-13T05:43:21.562Z,99009.48
2022-12-13T05:44:24.574Z,99005.94
2022-12-13T05:45:26.779Z,99009.48
2022-12-13T05:46:29.435Z,99013.97
2022-12-13T05:47:31.457Z,99022.86
2022-12-13T05:48:33.562Z,99013.97
2022-12-13T05:49:36.266Z,99014.84
2022-12-13T05:50:40.594Z,99021.86
2022-12-13T05:51:43.586Z,99023.70
2022-12-13T05:52:45.706Z,99021.86
2022-12-13T05:53:53.268Z,99024.54
2022-12-13T05:54:54.628Z,99009.36
2022-12-13T05:57:13.738Z,98999.47
2022-12-13T05:58:15.822Z,98995.11
2022-12-13T05:59:20.745Z,98999.62
2022-12-13T06:00:28.674Z,98991.59
2022-12-13T06:01:27.371Z,99001.34
2022-12-13T06:02:30.663Z,99006.69
2022-12-13T06:03:33.154Z,99001.34
2022-12-13T06:04:35.696Z,98996.82
2022-12-13T06:05:37.712Z,99001.20
2022-12-13T06:06:39.775Z,98996.70
2022-12-13T06:07:42.939Z,99003.88
2022-12-13T06:08:45.699Z,99004.72
2022-12-13T06:09:48.845Z,99006.42
2022-12-13T06:11:10.760Z,99001.91
2022-12-13T06:12:00.908Z,99002.05
2022-12-13T06:13:21.472Z,99007.39
2022-12-13T06:14:21.711Z,99006.42
2022-12-13T06:15:22.227Z,99012.75
2022-12-13T06:16:22.856Z,99014.45
2022-12-13T06:17:22.933Z,99015.42
2022-12-13T06:18:25.610Z,99023.32
2022-12-13T06:19:28.762Z,99011.78
2022-12-13T06:20:30.931Z,99020.77
2022-12-13T06:21:41.286Z,99015.42
2022-12-13T06:22:37.062Z,99017.97
2022-12-13T06:23:39.158Z,99007.27
2022-12-13T06:24:41.755Z,99001.91
2022-12-13T06:25:47.495Z,99012.75
2022-12-13T06:26:49.289Z,99011.78
2022-12-13T06:27:52.624Z,99017.13
2022-12-13T06:28:54.766Z,99010.07
2022-12-13T06:30:01.020Z,99017.97
2022-12-13T06:31:01.806Z,99022.48
2022-12-13T10:45:23.581Z,99021.20
2022-12-13T10:46:27.091Z,99014.27
2022-12-13T10:47:29.360Z,99010.98
2022-12-13T10:48:49.410Z,99001.17
2022-12-13T10:49:59.023Z,99011.02
2022-12-13T10:51:03.993Z,99001.75
2022-12-13T10:52:08.091Z,98995.33
2022-12-13T10:53:14.313Z,98994.34
2022-12-13T10:55:45.043Z,98997.42
2022-12-13T10:56:49.271Z,98993.80
2022-12-13T10:57:57.127Z,98999.19
2022-12-13T10:59:17.238Z,98997.41
2022-12-13T11:00:42.209Z,98989.48
2022-12-13T11:01:45.838Z,98990.35
2022-12-13T11:02:53.590Z,98994.05
2022-12-13T11:04:02.435Z,98993.80
2022-12-13T11:06:44.479Z,98982.83
2022-12-13T11:07:47.050Z,98987.70
2022-12-13T11:08:50.335Z,98994.27
2022-12-13T11:09:54.362Z,98995.73
2022-12-13T11:11:01.132Z,98991.84
2022-12-13T11:12:06.042Z,98995.98
2022-12-13T11:13:08.210Z,98994.66
2022-12-13T11:14:16.681Z,98988.94
2022-12-13T11:15:23.048Z,98985.89
2022-12-13T11:16:31.215Z,98992.61
2022-12-13T11:17:36.392Z,98992.36
2022-12-13T11:18:39.484Z,98983.12
2022-12-13T11:20:00.051Z,98985.55
2022-12-13T11:21:02.905Z,98982.63
2022-12-13T11:22:08.477Z,98988.59
2022-12-13T11:24:33.729Z,98988.09
2022-12-13T11:25:39.718Z,98980.94
2022-12-13T11:26:44.116Z,98989.54
2022-12-13T11:28:26.187Z,98990.28
2022-12-13T11:29:32.792Z,98988.32
2022-12-13T11:30:47.883Z,98986.39
2022-12-13T11:32:23.052Z,98982.75
2022-12-13T11:35:21.544Z,98980.92
2022-12-13T11:37:58.234Z,98986.41
2022-12-13T11:39:16.805Z,98986.39
2022-12-13T11:40:25.150Z,98985.52
2022-12-13T11:42:54.447Z,98984.70
2022-12-13T11:44:20.877Z,98989.06
2022-12-13T11:45:32.794Z,98988.09
2022-12-13T11:46:40.034Z,98984.33
2022-12-13T11:47:48.579Z,98986.88
2022-12-13T11:48:56.137Z,98987.75
2022-12-13T11:49:58.444Z,98985.91
2022-12-13T11:51:00.534Z,98987.63
2022-12-13T11:52:18.567Z,98986.66
2022-12-13T11:53:37.666Z,98980.44
2022-12-13T11:54:50.000Z,98985.79
2022-12-13T11:55:56.619Z,98988.34
2022-12-13T11:57:00.419Z,98996.36
2022-12-13T11:58:16.602Z,98992.84
2022-12-13T11:59:40.190Z,99003.41
2022-12-13T12:00:47.096Z,98993.69
2022-12-13T12:03:13.431Z,98992.83
2022-12-13T12:04:20.342Z,98992.72
2022-12-13T12:07:31.353Z,98990.02
2022-12-13T12:09:33.883Z,98990.98
2022-12-13T12:10:38.094Z,98990.05
2022-12-13T12:12:01.597Z,99001.58
2022-12-13T12:13:17.030Z,98994.43
2022-12-13T12:14:24.463Z,98997.94
2022-12-13T12:16:53.376Z,99001.59
2022-12-13T12:17:56.734Z,99003.29
2022-12-13T12:19:01.362Z,99000.61
2022-12-13T12:20:23.696Z,99003.91
2022-12-13T12:21:49.665Z,99003.91
2022-12-13T12:22:39.147Z,98997.69
2022-12-13T12:24:03.487Z,98999.52
2022-12-13T12:25:18.742Z,99002.20
2022-12-13T12:26:27.691Z,99004.03
2022-12-13T12:27:36.294Z,98999.52
2022-12-13T12:29:01.524Z,99001.23
2022-12-13T12:30:12.505Z,99002.91
2022-12-13T12:31:24.980Z,99002.91
2022-12-13T12:32:43.149Z,99000.23
2022-12-13T12:34:08.828Z,99004.74
2022-12-13T12:36:41.599Z,99000.34
2022-12-13T12:38:11.115Z,99001.94
2022-12-13T12:39:38.497Z,99002.69
2022-12-13T12:41:15.067Z,99005.11
2022-12-13T12:42:20.031Z,99006.42
2022-12-13T12:43:37.920Z,99001.78
2022-12-13T12:47:01.535Z,99004.08
2022-12-13T12:48:58.497Z,99005.69
2022-12-13T12:49:23.735Z,99011.63
2022-12-13T12:50:33.436Z,99004.34
2022-12-13T12:51:47.149Z,99005.05
2022-12-13T12:53:08.693Z,98997.75
2022-12-13T12:55:49.457Z,98993.81
2022-12-13T12:58:33.820Z,98992.45
2022-12-13T13:00:01.464Z,98990.66
2022-12-13T13:01:25.957Z,98984.33
2022-12-13T13:02:38.914Z,98991.27
2022-12-13T13:03:43.127Z,98989.30
2022-12-13T13:05:00.992Z,98984.78
2022-12-13T13:06:12.008Z,98985.52
2022-12-13T13:08:41.904Z,98983.56
2022-12-13T13:09:44.029Z,98960.61
2022-12-13T13:10:49.770Z,98996.70
2022-12-13T13:11:51.573Z,98982.31
2022-12-13T13:13:12.256Z,98991.08
2022-12-13T13:14:04.394Z,98993.63
2022-12-13T13:15:34.393Z,98991.66
2022-12-13T13:16:41.878Z,98983.56
2022-12-13T13:17:46.032Z,98985.10
2022-12-13T13:18:49.678Z,98982.32
2022-12-13T13:20:13.994Z,98986.67
2022-12-13T13:21:28.012Z,98990.09
2022-12-13T13:22:42.967Z,98990.93
2022-12-13T13:23:41.443Z,98991.80
2022-12-13T13:24:45.379Z,98983.63
2022-12-13T13:26:15.979Z,98992.51
2022-12-13T13:27:11.778Z,98984.47
2022-12-13T13:28:19.075Z,98985.17
2022-12-13T13:29:30.622Z,98984.20
2022-12-13T13:30:34.088Z,98989.56
2022-12-13T13:32:06.073Z,98988.45
2022-12-13T13:33:13.247Z,98986.62
2022-12-13T13:34:29.150Z,98985.65
2022-12-13T13:35:36.168Z,98983.84
2022-12-13T13:36:42.835Z,98981.16
2022-12-13T13:37:46.536Z,98984.67
2022-12-13T13:38:51.786Z,98978.34
2022-12-13T13:40:30.097Z,98980.89
2022-12-13T13:43:12.557Z,98986.89
2022-12-13T13:44:52.030Z,98978.92
2022-12-13T13:45:59.192Z,98979.05
2022-12-13T13:47:20.637Z,98974.56
2022-12-13T13:48:47.966Z,98976.38
2022-12-13T13:50:09.805Z,98978.48
2022-12-13T13:52:08.544Z,98976.44
2022-12-13T13:54:46.940Z,98978.77
2022-12-13T13:58:08.865Z,98968.41
2022-12-13T13:59:05.234Z,98972.71
2022-12-13T14:00:22.161Z,98978.84
2022-12-13T14:01:48.187Z,98979.06
2022-12-13T14:03:29.202Z,98981.03
2022-12-13T14:04:29.623Z,98984.54
2022-12-13T14:05:54.335Z,98984.28
2022-12-13T14:07:10.067Z,98981.52
2022-12-13T14:08:30.671Z,98979.93
2022-12-13T14:11:35.523Z,98979.64
2022-12-13T14:12:53.931Z,98982.22
2022-12-13T14:14:30.680Z,98989.28
2022-12-13T14:17:18.373Z,98994.73
2022-12-13T14:18:44.896Z,98992.09
2022-12-13T14:20:20.102Z,98993.05
2022-12-13T14:21:36.382Z,98995.11
2022-12-13T14:22:51.464Z,98991.59
2022-12-13T14:24:14.347Z,98989.89
2022-12-13T14:25:23.463Z,98992.70
2022-12-13T14:28:04.372Z,98993.44
2022-12-13T14:29:19.497Z,98996.23
2022-12-13T14:30:28.098Z,98989.33
2022-12-13T14:32:52.479Z,98993.08
2022-12-13T14:33:55.141Z,99001.13
2022-12-13T14:34:57.929Z,99000.25
2022-12-13T18:01:54.569Z,99019.36
2022-12-13T18:02:57.804Z,99024.02
2022-12-13T18:04:00.505Z,99025.75
2022-12-13T18:05:03.010Z,99019.48
2022-12-13T18:06:08.324Z,99022.91
2022-12-13T18:07:10.488Z,99029.03
2022-12-13T18:08:12.987Z,99019.84
2022-12-13T18:09:15.769Z,99024.96
2022-12-13T18:10:24.841Z,99023.75
2022-12-13T18:11:34.160Z,99022.75
2022-12-13T18:12:29.802Z,99027.84
2022-12-13T18:13:32.998Z,99023.20
2022-12-13T18:14:35.296Z,99032.02
2022-12-13T18:15:37.954Z,99027.45
2022-12-13T18:16:41.795Z,99030.91
2022-12-13T18:18:10.638Z,99029.23
2022-12-13T18:18:55.238Z,99033.65
2022-12-13T18:19:52.519Z,99029.23
2022-12-13T18:20:55.512Z,99029.38
2022-12-13T18:21:58.959Z,99026.84
2022-12-13T18:23:01.128Z,99038.50
2022-12-13T18:24:05.230Z,99029.78
2022-12-13T18:25:08.577Z,99049.58
2022-12-13T18:26:12.949Z,99039.97
2022-12-13T18:27:17.135Z,99038.41
2022-12-13T18:28:19.538Z,99044.13
2022-12-13T18:29:23.099Z,99036.48
2022-12-13T18:30:25.242Z,99036.00
2022-12-13T18:31:41.200Z,99042.69
2022-12-13T18:32:43.953Z,99031.47
2022-12-13T18:33:47.742Z,99051.89
2022-12-13T18:34:50.522Z,99051.89
2022-12-13T18:35:55.517Z,99048.83
2022-12-13T18:36:58.149Z,99045.80
2022-12-13T18:38:01.460Z,99046.38
2022-12-13T18:39:03.898Z,99051.38
2022-12-13T18:40:07.138Z,99048.44
2022-12-13T18:41:11.714Z,99053.41
2022-12-13T18:42:15.265Z,99054.02
2022-12-13T18:43:17.936Z,99056.44
2022-12-13T18:44:20.593Z,99061.41
2022-12-13T18:45:23.627Z,99054.95
2022-12-13T18:46:27.208Z,99048.52
2022-12-13T18:47:30.575Z,99058.14
2022-12-13T18:48:34.067Z,99053.39
2022-12-13T18:49:37.348Z,99054.09
2022-12-13T18:50:45.570Z,99052.12
2022-12-13T18:51:44.984Z,99053.00
2022-12-13T18:52:47.613Z,99054.44
2022-12-13T18:53:51.814Z,99061.38
2022-12-13T18:54:55.026Z,99059.41
2022-12-13T18:57:15.052Z,99065.31
2022-12-13T18:58:17.299Z,99067.91
2022-12-13T18:59:19.565Z,99055.36
2022-12-13T19:00:22.833Z,99068.48
2022-12-13T19:01:26.232Z,99066.55
2022-12-13T19:02:34.286Z,99070.06
2022-12-13T19:03:34.260Z,99068.12
2022-12-13T19:04:36.966Z,99065.45
2022-12-13T19:05:41.117Z,99068.96
2022-12-13T19:06:43.404Z,99075.16
2022-12-13T19:07:45.986Z,99075.16
2022-12-13T19:10:04.909Z,99074.13
2022-12-13T19:11:07.117Z,99080.41
2022-12-13T19:12:09.207Z,99077.73
2022-12-13T19:13:13.346Z,99067.86
2022-12-13T19:14:18.267Z,99082.96
2022-12-13T19:15:21.345Z,99080.28
2022-12-13T19:16:24.530Z,99073.92
2022-12-13T19:17:27.397Z,99080.16
2022-12-13T19:18:34.734Z,99079.28
2022-12-13T19:19:36.979Z,99078.31
2022-12-13T19:20:46.081Z,99085.38
2022-12-13T19:21:49.516Z,99087.09
2022-12-13T19:22:52.098Z,99089.77
2022-12-13T19:23:58.184Z,99091.44
2022-12-13T19:25:01.950Z,99093.28
2022-12-13T19:26:07.252Z,99093.28
2022-12-13T19:27:11.001Z,99093.28
2022-12-13T19:28:15.677Z,99097.67
2022-12-13T19:29:17.972Z,99105.70
2022-12-13T19:30:22.541Z,99101.32
2022-12-13T19:32:48.488Z,99102.16
2022-12-13T19:33:51.866Z,99099.48
2022-12-13T19:34:55.266Z,99100.35
2022-12-13T19:35:59.815Z,99109.23
2022-12-13T19:37:06.579Z,99104.84
2022-12-13T19:38:07.868Z,99099.48
2022-12-13T19:39:15.139Z,99101.19
2022-12-13T19:40:18.887Z,99114.59
2022-12-13T19:41:22.201Z,99107.42
2022-12-13T19:42:26.260Z,99111.91
2022-12-13T19:43:31.381Z,99110.09
2022-12-13T19:44:34.746Z,99108.26
2022-12-13T19:45:38.138Z,99119.81
2022-12-13T19:46:41.459Z,99121.66
2022-12-13T19:47:46.685Z,99114.59
2022-12-13T19:48:50.174Z,99120.69
2022-12-13T19:49:52.373Z,99123.50
2022-12-13T19:51:00.331Z,99118.97
2022-12-13T19:52:03.241Z,99118.00
2022-12-13T19:53:07.087Z,99114.45
2022-12-13T19:54:10.162Z,99107.42
2022-12-13T19:55:14.894Z,99116.16
2022-12-13T19:56:19.468Z,99116.16
2022-12-13T19:57:22.670Z,99110.94
2022-12-13T19:58:26.468Z,99114.45
2022-12-13T19:59:29.631Z,99127.72
2022-12-13T20:00:31.821Z,99117.13
2022-12-13T20:01:36.147Z,99116.16
2022-12-13T20:02:39.792Z,99125.17
2022-12-13T20:03:43.368Z,99125.04
2022-12-13T20:04:47.008Z,99120.81
2022-12-13T20:05:58.428Z,99121.52
2022-12-13T20:07:01.743Z,99127.72
2022-12-13T20:08:05.745Z,99124.20
2022-12-13T20:09:10.009Z,99133.95
2022-12-13T20:10:13.346Z,99134.79
2022-12-13T20:11:20.270Z,99140.15
2022-12-13T20:12:22.495Z,99137.47
2022-12-13T20:13:27.731Z,99135.62
2022-12-13T20:14:30.921Z,99141.86
2022-12-13T20:15:34.119Z,99140.15
2022-12-13T20:16:36.860Z,99140.15
2022-12-13T20:17:39.626Z,99138.30
2022-12-13T20:18:42.762Z,99138.30
2022-12-13T20:19:50.626Z,99137.34
2022-12-13T20:22:15.108Z,99139.13
2022-12-13T20:23:31.225Z,99144.53
2022-12-13T20:24:35.442Z,99143.67
2022-12-13T20:25:37.568Z,99143.67
2022-12-13T20:26:40.084Z,99143.67
2022-12-13T20:27:42.295Z,99140.15
2022-12-13T20:28:44.498Z,99146.34
2022-12-13T20:29:48.765Z,99149.89
2022-12-13T20:30:51.123Z,99151.61
2022-12-13T20:31:54.627Z,99154.28
2022-12-13T20:32:56.985Z,99148.92
2022-12-13T20:34:01.476Z,99151.61
2022-12-13T20:35:04.620Z,99149.89
2022-12-13T20:36:25.816Z,99153.28
2022-12-13T20:38:27.312Z,99153.36
2022-12-13T20:39:30.413Z,99156.97
2022-12-13T20:40:32.866Z,99154.28
2022-12-13T20:41:36.161Z,99157.80
2022-12-13T20:42:39.342Z,99152.44
2022-12-13T20:43:43.668Z,99153.28
2022-12-13T20:44:47.935Z,99155.96
2022-12-13T20:45:51.441Z,99158.64
2022-12-13T20:46:54.291Z,99155.96
2022-12-13T20:47:57.572Z,99158.64
2022-12-13T20:49:01.255Z,99162.19
2022-12-13T20:50:04.378Z,99170.23
2022-12-13T20:51:07.533Z,99163.87
2022-12-13T20:52:12.994Z,99162.19
2022-12-13T20:53:30.271Z,99169.23
2022-12-13T20:54:33.996Z,99166.55
2022-12-13T20:55:37.306Z,99160.35
2022-12-13T20:56:39.455Z,99171.07
2022-12-13T20:57:41.605Z,99170.23
2022-12-13T20:58:44.519Z,99171.07
2022-12-13T20:59:47.251Z,99164.00
2022-12-13T21:00:49.961Z,99168.39
2022-12-13T21:01:52.838Z,99168.39
2022-12-13T21:02:55.778Z,99163.03
2022-12-13T21:04:00.302Z,99168.39
2022-12-13T21:05:04.200Z,99169.23
2022-12-13T21:06:07.689Z,99163.03
2022-12-13T21:07:11.861Z,99174.72
2022-12-13T21:08:14.811Z,99173.88
2022-12-13T21:09:18.201Z,99173.05
2022-12-13T21:10:22.294Z,99173.05
2022-12-13T21:11:27.929Z,99176.56
2022-12-13T21:12:31.787Z,99176.56
2022-12-13T21:13:34.860Z,99173.05
2022-12-13T21:14:37.024Z,99175.72
2022-12-13T21:15:39.773Z,99181.08
2022-12-13T21:16:44.678Z,99179.38
2022-12-13T21:17:46.933Z,99182.05
2022-12-13T21:18:49.542Z,99184.59
2022-12-13T21:19:52.137Z,99183.02
2022-12-13T21:20:55.285Z,99175.24
2022-12-13T21:21:57.429Z,99171.83
2022-12-13T21:23:01.544Z,99182.05
2022-12-13T21:24:05.027Z,99184.73
2022-12-13T21:25:09.636Z,99196.29
2022-12-13T21:26:11.787Z,99196.29
2022-12-13T21:27:14.369Z,99177.66
2022-12-13T21:28:16.443Z,99176.22
2022-12-13T21:29:19.819Z,99191.71
2022-12-13T21:30:22.977Z,99185.13
2022-12-13T21:31:25.760Z,99187.84
2022-12-13T21:32:28.705Z,99183.13
2022-12-13T21:33:32.840Z,99186.54
2022-12-13T21:34:36.522Z,99187.89
2022-12-13T21:35:39.379Z,99189.33
2022-12-13T21:36:46.924Z,99192.61
2022-12-13T21:37:49.441Z,99186.67
2022-12-13T21:38:53.014Z,99187.27
2022-12-13T21:39:55.142Z,99227.78
2022-12-13T21:40:57.266Z,99186.30
2022-12-13T21:41:59.958Z,99188.36
2022-12-13T21:43:03.114Z,99187.14
2022-12-13T21:44:06.292Z,99187.61
2022-12-13T21:45:09.268Z,99179.95
2022-12-13T21:46:13.861Z,99181.28
2022-12-13T21:47:15.946Z,99188.80
2022-12-13T21:48:18.045Z,99188.33
2022-12-13T21:49:21.580Z,99189.42
2022-12-13T21:50:24.585Z,99187.92
2022-12-13T21:51:27.315Z,99188.04
2022-12-13T21:52:30.847Z,99184.28
2022-12-13T21:53:33.765Z,99185.66
2022-12-13T21:54:36.533Z,99177.27
2022-12-13T21:55:44.320Z,99180.44
2022-12-13T21:56:50.870Z,99182.62
2022-12-13T21:57:53.546Z,99186.64
2022-12-13T21:58:55.620Z,99183.50
2022-12-13T21:59:58.159Z,99183.25
2022-12-13T22:01:00.596Z,99181.08
2022-12-13T22:02:06.887Z,99189.69
2022-12-13T22:03:11.234Z,99186.64
2022-12-13T22:04:14.326Z,99191.77
2022-12-13T22:05:17.161Z,99191.52
2022-12-13T22:07:29.437Z,99196.38
2022-12-13T22:08:31.639Z,99193.48
2022-12-13T22:09:36.262Z,99196.74
2022-12-13T22:10:38.820Z,99200.87
2022-12-13T22:11:40.973Z,99200.87
2022-12-13T22:12:43.736Z,99203.30
2022-12-13T22:13:48.439Z,99205.80
2022-12-13T22:14:52.845Z,99205.66
2022-12-13T22:15:55.585Z,99209.92
2022-12-13T22:16:59.739Z,99215.16
2022-12-13T22:18:02.641Z,99215.03
2022-12-13T22:19:04.991Z,99208.70
2022-12-13T22:20:10.715Z,99217.45
2022-12-13T22:21:12.981Z,99221.84
2022-12-13T22:22:16.539Z,99224.39
2022-12-13T22:23:19.202Z,99216.10
2022-12-13T22:24:21.565Z,99220.49
2022-12-13T22:25:25.485Z,99228.40
2022-12-13T22:26:27.884Z,99220.23
2022-12-13T22:27:30.156Z,99226.44
2022-12-13T22:28:34.700Z,99228.14
2022-12-13T22:29:38.483Z,99219.86
2022-12-13T22:30:47.552Z,99224.24
2022-12-13T22:31:50.391Z,99226.80
2022-12-13T22:32:53.055Z,99224.86
2022-12-13T22:33:55.429Z,99226.54
2022-12-13T22:34:57.506Z,99230.09
2022-12-13T22:36:03.149Z,99235.31
2022-12-13T22:37:06.325Z,99232.64
2022-12-13T22:38:09.531Z,99233.34
2022-12-13T22:39:16.958Z,99226.19
2022-12-13T22:40:19.111Z,99235.06
2022-12-13T22:41:21.846Z,99233.13
2022-12-13T22:42:24.775Z,99234.80
2022-12-13T22:43:26.870Z,99223.96
2022-12-13T22:44:28.978Z,99222.16
2022-12-13T22:45:31.137Z,99223.86
2022-12-13T22:46:33.572Z,99227.38
2022-12-13T22:47:36.708Z,99224.70
2022-12-13T22:48:39.456Z,99221.05
2022-12-13T22:49:42.971Z,99225.41
2022-12-13T22:50:45.336Z,99226.16
2022-12-13T22:51:49.420Z,99231.52
2022-12-13T22:52:51.510Z,99229.67
2022-12-13T22:53:54.841Z,99231.39
2022-12-13T22:54:57.961Z,99229.55
2022-12-13T22:57:27.784Z,99235.73
2022-12-13T22:58:30.963Z,99234.77
2022-12-13T22:59:33.004Z,99233.94
2022-12-13T23:00:35.609Z,99235.65
2022-12-13T23:01:38.719Z,99227.61
2022-12-13T23:02:41.804Z,99241.84
2022-12-13T23:03:45.124Z,99239.03
2022-12-13T23:04:47.439Z,99239.91
2022-12-13T23:05:49.552Z,99241.59
2022-12-13T23:06:52.811Z,99246.84
2022-12-13T23:07:54.905Z,99247.69
2022-12-13T23:10:12.101Z,99237.77
2022-12-13T23:11:15.568Z,99236.00
2022-12-13T23:12:18.094Z,99239.52
2022-12-13T23:13:20.533Z,99239.52
2022-12-13T23:14:30.931Z,99234.16
2022-12-13T23:15:37.733Z,99243.91
2022-12-13T23:16:41.359Z,99241.23
2022-12-13T23:17:43.555Z,99234.03
2022-12-13T23:18:46.319Z,99242.94
2022-12-13T23:19:50.056Z,99242.94
2022-12-13T23:20:52.435Z,99242.94
2022-12-13T23:21:57.268Z,99251.82
2022-12-13T23:22:59.590Z,99251.82
2022-12-13T23:24:01.927Z,99248.30
2022-12-13T23:25:05.021Z,99247.30
2022-12-13T23:26:12.623Z,99251.69
2022-12-13T23:27:14.762Z,99258.77
2022-12-13T23:28:18.221Z,99253.41
2022-12-13T23:29:20.837Z,99252.53
2022-12-13T23:30:24.866Z,99248.88
2022-12-13T23:31:28.770Z,99251.56
2022-12-13T23:32:30.997Z,99255.95
2022-12-13T23:33:34.870Z,99253.27
2022-12-13T23:34:37.921Z,99256.92
2022-12-13T23:35:41.127Z,99255.73
2022-12-13T23:36:44.719Z,99253.79
2022-12-13T23:37:48.478Z,99254.56
2022-12-13T23:38:52.419Z,99257.84
2022-12-13T23:39:55.817Z,99254.45
2022-12-13T23:41:06.863Z,99262.59
2022-12-13T23:42:09.005Z,99262.25
2022-12-13T23:43:11.897Z,99254.81
2022-12-13T23:44:14.480Z,99263.11
2022-12-13T23:45:17.344Z,99268.71
2022-12-13T23:46:22.255Z,99263.70
2022-12-13T23:47:24.456Z,99265.76
2022-12-13T23:48:27.319Z,99271.23
2022-12-13T23:49:30.052Z,99267.94
2022-12-13T23:50:32.735Z,99262.70
2022-12-13T23:51:34.914Z,99272.58